Welcome to Northern Hawkes Bay. New Zealand.
PWS Header
      nz Flag



Hit Counter


W3C Valid W3C Valid logo


    Wairoa

Select any of the Stations below to visit their websites.










Historic Data from Weather Underground
Select the location of interest below. Wairoa is the default. Please have patience, this Data is slow to load in.
Northern Hawkes Bay Historical Data
Daily Summary for August 7, 2017 Units:  Metric    English   Both
« Previous Day
Next Day »
Daily Weekly Monthly Yearly Custom
  High: Low: Average:
Temperature: 21.9 °C 8.9 °C 13.9 °C
Dew Point: 12.2 °C 7.2 °C 8.8 °C
Humidity: 92% 43% 74%
Wind Speed: 17.2km/h 0.0km/h 5km/h
Wind Gust: 23.3km/h - -
Wind- - West
Pressure: 1024.3 hPa 1020.5 hPa -
Precipitation: 0.3 mm    
Historical Graphs
 
 
Tabular Data for August 7, 2017
Time Temperature Dew Point Pressure Wind Wind Speed Wind Gust Humidity Rainfall Rate (Hourly) solar
00:06 10.9 °C 7.4 °C 1021.6 hPa East 1.1 km/h 3.5 km/h 79% 0.0 mm 0 W/m2
00:11 10.8 °C 7.7 °C 1021.6 hPa ENE 2.6 km/h 3.5 km/h 81% 0.0 mm 0 W/m2
00:16 10.9 °C 8.1 °C 1021.6 hPa NNW 5.0 km/h 7.2 km/h 83% 0.0 mm 0 W/m2
00:21 10.9 °C 8.3 °C 1021.6 hPa North 5.0 km/h 9.7 km/h 84% 0.0 mm 0 W/m2
00:26 10.9 °C 8.3 °C 1021.2 hPa North 6.1 km/h 11.1 km/h 84% 0.0 mm 0 W/m2
00:31 11.2 °C 8.4 °C 1021.2 hPa NNW 7.2 km/h 13.4 km/h 83% 0.3 mm 0 W/m2
00:36 11.5 °C 8.6 °C 1021.2 hPa NNW 6.1 km/h 13.4 km/h 82% 0.3 mm 0 W/m2
00:41 11.7 °C 8.4 °C 1021.2 hPa NNW 6.1 km/h 14.8 km/h 80% 0.3 mm 0 W/m2
00:46 11.8 °C 8.3 °C 1020.9 hPa NNW 6.1 km/h 14.8 km/h 79% 0.3 mm 0 W/m2
00:51 11.7 °C 8.0 °C 1020.9 hPa NNW 5.0 km/h 13.4 km/h 78% 0.3 mm 0 W/m2
00:56 11.7 °C 8.0 °C 1020.9 hPa NNW 3.5 km/h 13.4 km/h 78% 0.3 mm 0 W/m2
01:01 11.6 °C 7.9 °C 1020.9 hPa NNW 5.0 km/h 8.7 km/h 78% 0.3 mm 0 W/m2
01:06 11.5 °C 7.8 °C 1020.9 hPa NNW 2.6 km/h 8.7 km/h 78% 0.3 mm 0 W/m2
01:11 11.4 °C 7.9 °C 1020.9 hPa NNW 1.1 km/h 8.7 km/h 79% 0.3 mm 0 W/m2
01:17 11.3 °C 7.8 °C 1021.2 hPa NW 2.6 km/h 3.5 km/h 79% 0.3 mm 0 W/m2
01:22 11.1 °C 7.6 °C 1021.2 hPa Calm   3.5 km/h 79% 0.3 mm 0 W/m2
01:27 11.0 °C 7.5 °C 1021.2 hPa WSW 1.1 km/h 3.5 km/h 79% 0.3 mm 0 W/m2
01:37 10.7 °C 7.8 °C 1020.9 hPa NNE 3.5 km/h 5.0 km/h 82% 0.0 mm 0 W/m2
01:47 10.8 °C 8.1 °C 1020.9 hPa North 3.5 km/h 5.0 km/h 83% 0.0 mm 0 W/m2
01:52 10.9 °C 8.1 °C 1020.9 hPa North 2.6 km/h 6.1 km/h 83% 0.0 mm 0 W/m2
01:55 10.9 °C 8.1 °C 1020.9 hPa North 3.5 km/h 6.1 km/h 83% 0.0 mm 0 W/m2
02:00 10.9 °C 8.1 °C 1020.5 hPa NNE 5.0 km/h 8.7 km/h 83% 0.0 mm 0 W/m2
02:05 10.9 °C 7.9 °C 1020.5 hPa NNE 5.0 km/h 14.8 km/h 82% 0.0 mm 0 W/m2
02:10 10.9 °C 7.9 °C 1020.5 hPa North 2.6 km/h 14.8 km/h 82% 0.0 mm 0 W/m2
02:15 10.7 °C 7.8 °C 1020.5 hPa Calm   7.2 km/h 82% 0.0 mm 0 W/m2
02:20 10.6 °C 7.8 °C 1020.5 hPa West 2.6 km/h 3.5 km/h 83% 0.0 mm 0 W/m2
02:26 10.5 °C 7.7 °C 1020.5 hPa SW 3.5 km/h 5.0 km/h 83% 0.0 mm 0 W/m2
02:31 10.3 °C 7.6 °C 1020.9 hPa SW 5.0 km/h 7.2 km/h 83% 0.0 mm 0 W/m2
02:36 10.1 °C 7.3 °C 1020.5 hPa Calm   7.2 km/h 83% 0.0 mm 0 W/m2
02:41 10.1 °C 7.5 °C 1020.5 hPa Calm   7.2 km/h 84% 0.0 mm 0 W/m2
02:46 10.1 °C 7.5 °C 1020.5 hPa South 1.1 km/h 3.5 km/h 84% 0.0 mm 0 W/m2
02:51 10.1 °C 7.5 °C 1020.5 hPa SSE 2.6 km/h 5.0 km/h 84% 0.0 mm 0 W/m2
02:56 10.2 °C 7.6 °C 1020.5 hPa South 3.5 km/h 6.1 km/h 84% 0.0 mm 0 W/m2
03:01 10.3 °C 7.7 °C 1020.5 hPa Calm   6.1 km/h 84% 0.0 mm 0 W/m2
03:06 10.4 °C 7.8 °C 1020.5 hPa SSE 1.1 km/h 5.0 km/h 84% 0.0 mm 0 W/m2
03:11 10.4 °C 7.8 °C 1020.5 hPa South 6.1 km/h 8.7 km/h 84% 0.0 mm 0 W/m2
03:16 10.7 °C 8.1 °C 1020.5 hPa South 5.0 km/h 8.7 km/h 84% 0.0 mm 0 W/m2
03:21 10.7 °C 8.1 °C 1020.5 hPa South 3.5 km/h 8.7 km/h 84% 0.0 mm 0 W/m2
03:26 10.8 °C 8.1 °C 1020.5 hPa South 1.1 km/h 8.7 km/h 83% 0.0 mm 0 W/m2
03:31 10.8 °C 8.1 °C 1020.9 hPa South 1.1 km/h 8.7 km/h 83% 0.0 mm 0 W/m2
03:36 10.8 °C 8.1 °C 1020.5 hPa SW 1.1 km/h 3.5 km/h 83% 0.0 mm 0 W/m2
03:41 10.6 °C 7.8 °C 1020.5 hPa SSW 2.6 km/h 3.5 km/h 83% 0.0 mm 0 W/m2
03:46 10.6 °C 7.8 °C 1020.9 hPa Calm   3.5 km/h 83% 0.0 mm 0 W/m2
03:51 10.4 °C 7.7 °C 1020.9 hPa South 1.1 km/h 3.5 km/h 83% 0.0 mm 0 W/m2
03:56 10.5 °C 7.9 °C 1020.9 hPa NNW 1.1 km/h 5.0 km/h 84% 0.0 mm 0 W/m2
04:01 10.3 °C 7.7 °C 1020.9 hPa NW 2.6 km/h 5.0 km/h 84% 0.0 mm 0 W/m2
04:06 10.3 °C 7.7 °C 1020.9 hPa NW 3.5 km/h 6.1 km/h 84% 0.0 mm 0 W/m2
04:11 10.4 °C 8.0 °C 1020.9 hPa NW 3.5 km/h 6.1 km/h 85% 0.0 mm 0 W/m2
04:16 10.2 °C 7.8 °C 1020.9 hPa NW 2.6 km/h 6.1 km/h 85% 0.0 mm 0 W/m2
04:21 10.2 °C 7.8 °C 1020.5 hPa NW 3.5 km/h 6.1 km/h 85% 0.0 mm 0 W/m2
04:26 10.2 °C 7.8 °C 1020.9 hPa NW 3.5 km/h 6.1 km/h 85% 0.0 mm 0 W/m2
04:31 10.3 °C 8.1 °C 1020.9 hPa NNW 3.5 km/h 7.2 km/h 86% 0.0 mm 0 W/m2
04:36 10.7 °C 8.4 °C 1020.9 hPa NNW 3.5 km/h 14.8 km/h 86% 0.0 mm 0 W/m2
04:46 11.3 °C 8.5 °C 1021.2 hPa NW 3.5 km/h 8.7 km/h 83% 0.0 mm 0 W/m2
04:51 11.1 °C 8.3 °C 1021.2 hPa Calm   8.7 km/h 83% 0.0 mm 0 W/m2
04:56 10.9 °C 8.1 °C 1021.2 hPa Calm   6.1 km/h 83% 0.0 mm 0 W/m2
05:01 10.8 °C 8.2 °C 1021.2 hPa Calm   2.6 km/h 84% 0.0 mm 0 W/m2
05:06 10.7 °C 8.1 °C 1021.2 hPa Calm   3.5 km/h 84% 0.0 mm 0 W/m2
05:11 10.7 °C 8.1 °C 1021.2 hPa NE 1.1 km/h 3.5 km/h 84% 0.0 mm 0 W/m2
05:16 10.7 °C 8.1 °C 1021.2 hPa NNE 1.1 km/h 3.5 km/h 84% 0.0 mm 0 W/m2
05:21 10.7 °C 8.1 °C 1021.2 hPa North 2.6 km/h 3.5 km/h 84% 0.0 mm 0 W/m2
05:26 10.5 °C 8.1 °C 1021.2 hPa North 2.6 km/h 5.0 km/h 85% 0.0 mm 0 W/m2
05:30 10.3 °C 7.9 °C 1021.2 hPa North 1.1 km/h 5.0 km/h 85% 0.0 mm 0 W/m2
05:35 10.3 °C 7.9 °C 1021.2 hPa North 2.6 km/h 5.0 km/h 85% 0.0 mm 0 W/m2
05:40 10.2 °C 7.8 °C 1021.2 hPa North 2.6 km/h 5.0 km/h 85% 0.0 mm 0 W/m2
05:45 10.1 °C 7.9 °C 1021.6 hPa NNW 3.5 km/h 5.0 km/h 86% 0.0 mm 0 W/m2
05:50 10.1 °C 7.9 °C 1021.6 hPa NW 2.6 km/h 6.1 km/h 86% 0.0 mm 0 W/m2
05:55 10.0 °C 7.8 °C 1021.6 hPa NNW 3.5 km/h 6.1 km/h 86% 0.0 mm 0 W/m2
06:00 9.8 °C 7.7 °C 1021.6 hPa NNW 3.5 km/h 6.1 km/h 87% 0.0 mm 0 W/m2
06:06 9.5 °C 7.4 °C 1021.6 hPa NNW 3.5 km/h 6.1 km/h 87% 0.0 mm 0 W/m2
06:11 9.3 °C 7.2 °C 1021.6 hPa North 3.5 km/h 7.2 km/h 87% 0.0 mm 0 W/m2
06:16 9.1 °C 7.2 °C 1021.2 hPa North 3.5 km/h 7.2 km/h 88% 0.0 mm 0 W/m2
06:21 9.1 °C 7.2 °C 1021.6 hPa North 3.5 km/h 6.1 km/h 88% 0.0 mm 0 W/m2
06:26 9.0 °C 7.3 °C 1021.6 hPa North 3.5 km/h 7.2 km/h 89% 0.0 mm 0 W/m2
06:31 8.9 °C 7.5 °C 1021.6 hPa NNW 6.1 km/h 8.7 km/h 91% 0.0 mm 0 W/m2
06:36 8.9 °C 7.5 °C 1021.6 hPa NNW 5.0 km/h 8.7 km/h 91% 0.0 mm 0 W/m2
06:41 8.9 °C 7.7 °C 1021.6 hPa NNW 6.1 km/h 9.7 km/h 92% 0.0 mm 0 W/m2
06:47 8.9 °C 7.7 °C 1021.9 hPa NW 8.7 km/h 9.7 km/h 92% 0.0 mm 0 W/m2
06:52 9.1 °C 7.9 °C 1021.9 hPa NNW 9.7 km/h 12.2 km/h 92% 0.0 mm 0 W/m2
06:57 9.3 °C 8.1 °C 1021.9 hPa North 9.7 km/h 13.4 km/h 92% 0.0 mm 0 W/m2
07:02 9.4 °C 8.2 °C 1021.9 hPa NNW 8.7 km/h 15.8 km/h 92% 0.0 mm 0 W/m2
07:07 9.5 °C 8.3 °C 1021.9 hPa NNW 7.2 km/h 15.8 km/h 92% 0.0 mm 0 W/m2
07:12 9.4 °C 8.2 °C 1021.9 hPa NNW 9.7 km/h 12.2 km/h 92% 0.0 mm 1 W/m2
07:17 9.5 °C 8.3 °C 1021.9 hPa NNW 9.7 km/h 14.8 km/h 92% 0.0 mm 4 W/m2
07:22 9.6 °C 8.4 °C 1021.9 hPa NNW 8.7 km/h 15.8 km/h 92% 0.0 mm 6 W/m2
07:32 10.2 °C 8.9 °C 1021.9 hPa NW 9.7 km/h 15.8 km/h 92% 0.0 mm 35 W/m2
07:37 10.6 °C 9.2 °C 1021.9 hPa NNW 9.7 km/h 15.8 km/h 91% 0.0 mm 52 W/m2
07:42 10.8 °C 9.2 °C 1022.2 hPa NNW 8.7 km/h 15.8 km/h 90% 0.0 mm 53 W/m2
07:47 11.2 °C 9.3 °C 1022.2 hPa NNW 9.7 km/h 15.8 km/h 88% 0.0 mm 42 W/m2
07:52 11.0 °C 8.8 °C 1022.2 hPa NW 8.7 km/h 14.8 km/h 86% 0.0 mm 100 W/m2
07:57 11.3 °C 9.1 °C 1022.2 hPa NNW 9.7 km/h 14.8 km/h 86% 0.0 mm 39 W/m2
08:02 11.2 °C 8.9 °C 1022.2 hPa NW 13.4 km/h 19.5 km/h 86% 0.0 mm 38 W/m2
08:07 11.1 °C 8.8 °C 1022.2 hPa NW 9.7 km/h 20.9 km/h 86% 0.0 mm 49 W/m2
08:12 11.1 °C 8.8 °C 1022.2 hPa NW 12.2 km/h 20.9 km/h 86% 0.0 mm 57 W/m2
08:17 11.4 °C 9.3 °C 1022.2 hPa NW 11.1 km/h 17.2 km/h 87% 0.0 mm 116 W/m2
08:22 11.7 °C 9.4 °C 1022.2 hPa NNW 13.4 km/h 19.5 km/h 86% 0.0 mm 130 W/m2
08:27 11.8 °C 9.4 °C 1022.2 hPa NNW 8.7 km/h 19.5 km/h 85% 0.0 mm 66 W/m2
08:32 11.7 °C 9.3 °C 1022.2 hPa NW 11.1 km/h 19.5 km/h 85% 0.0 mm 63 W/m2
08:37 11.9 °C 9.4 °C 1022.2 hPa NNW 11.1 km/h 17.2 km/h 85% 0.0 mm 72 W/m2
08:42 12.1 °C 9.5 °C 1022.6 hPa NNW 12.2 km/h 18.3 km/h 84% 0.0 mm 186 W/m2
08:47 12.4 °C 9.8 °C 1022.2 hPa NNW 8.7 km/h 18.3 km/h 84% 0.0 mm 188 W/m2
08:52 13.1 °C 10.4 °C 1022.6 hPa NNW 7.2 km/h 18.3 km/h 84% 0.0 mm 208 W/m2
09:02 13.9 °C 10.7 °C 1022.6 hPa NNW 2.6 km/h 13.4 km/h 81% 0.0 mm 221 W/m2
09:07 14.6 °C 11.0 °C 1022.6 hPa NNW 3.5 km/h 8.7 km/h 79% 0.0 mm 255 W/m2
09:12 14.9 °C 10.9 °C 1022.2 hPa North 2.6 km/h 7.2 km/h 77% 0.0 mm 158 W/m2
09:17 15.2 °C 11.0 °C 1022.9 hPa North 6.1 km/h 7.2 km/h 76% 0.0 mm 247 W/m2
09:22 15.7 °C 11.1 °C 1022.9 hPa North 3.5 km/h 7.2 km/h 74% 0.0 mm 282 W/m2
09:27 16.3 °C 11.3 °C 1022.6 hPa North 5.0 km/h 7.2 km/h 72% 0.0 mm 291 W/m2
09:32 16.6 °C 11.1 °C 1022.9 hPa NNW 6.1 km/h 8.7 km/h 70% 0.0 mm 299 W/m2
09:37 16.8 °C 11.1 °C 1022.9 hPa NNW 6.1 km/h 11.1 km/h 69% 0.0 mm 299 W/m2
09:42 17.0 °C 10.8 °C 1022.9 hPa NNW 6.1 km/h 11.1 km/h 67% 0.0 mm 226 W/m2
09:47 17.3 °C 10.2 °C 1023.2 hPa NW 6.1 km/h 13.4 km/h 63% 0.0 mm 102 W/m2
09:52 17.4 °C 10.3 °C 1022.9 hPa NW 9.7 km/h 13.4 km/h 63% 0.0 mm 65 W/m2
09:57 17.5 °C 10.2 °C 1023.2 hPa NW 7.2 km/h 12.2 km/h 62% 0.0 mm 62 W/m2
10:02 17.3 °C 9.7 °C 1022.9 hPa NNW 7.2 km/h 14.8 km/h 61% 0.0 mm 59 W/m2
10:07 17.4 °C 9.6 °C 1023.2 hPa NW 9.7 km/h 15.8 km/h 60% 0.0 mm 57 W/m2
10:12 17.7 °C 9.8 °C 1023.2 hPa NW 8.7 km/h 15.8 km/h 60% 0.0 mm 54 W/m2
10:17 17.8 °C 9.4 °C 1023.2 hPa NW 6.1 km/h 15.8 km/h 58% 0.0 mm 54 W/m2
10:22 18.0 °C 9.4 °C 1023.2 hPa NW 13.4 km/h 18.3 km/h 57% 0.0 mm 54 W/m2
10:27 18.0 °C 9.4 °C 1023.2 hPa NNW 6.1 km/h 18.3 km/h 57% 0.0 mm 56 W/m2
10:32 18.4 °C 9.5 °C 1023.2 hPa NW 5.0 km/h 17.2 km/h 56% 0.0 mm 61 W/m2
10:37 18.6 °C 9.7 °C 1023.2 hPa NW 9.7 km/h 15.8 km/h 56% 0.0 mm 107 W/m2
10:42 18.4 °C 9.5 °C 1023.2 hPa NW 12.2 km/h 19.5 km/h 56% 0.0 mm 258 W/m2
10:47 18.4 °C 9.5 °C 1023.2 hPa NW 14.8 km/h 19.5 km/h 56% 0.0 mm 303 W/m2
10:52 18.2 °C 9.0 °C 1023.2 hPa NNW 8.7 km/h 21.9 km/h 55% 0.0 mm 309 W/m2
10:57 18.4 °C 9.5 °C 1023.2 hPa NNW 8.7 km/h 21.9 km/h 56% 0.0 mm 312 W/m2
11:02 18.5 °C 9.6 °C 1023.2 hPa NW 11.1 km/h 15.8 km/h 56% 0.0 mm 317 W/m2
11:07 18.5 °C 9.6 °C 1023.2 hPa WNW 12.2 km/h 17.2 km/h 56% 0.0 mm 320 W/m2
11:12 18.5 °C 9.3 °C 1023.2 hPa NW 11.1 km/h 17.2 km/h 55% 0.0 mm 321 W/m2
11:17 18.7 °C 9.5 °C 1023.2 hPa NW 11.1 km/h 17.2 km/h 55% 0.0 mm 319 W/m2
11:22 18.8 °C 9.6 °C 1023.2 hPa WNW 13.4 km/h 18.3 km/h 55% 0.0 mm 320 W/m2
11:27 18.7 °C 8.7 °C 1023.2 hPa NW 14.8 km/h 18.3 km/h 52% 0.0 mm 319 W/m2
11:32 18.8 °C 8.7 °C 1023.2 hPa NW 6.1 km/h 18.3 km/h 52% 0.0 mm 318 W/m2
11:37 19.0 °C 8.3 °C 1023.2 hPa NW 14.8 km/h 23.3 km/h 50% 0.0 mm 318 W/m2
11:42 19.2 °C 7.9 °C 1022.9 hPa NW 9.7 km/h 23.3 km/h 48% 0.0 mm 318 W/m2
11:47 19.3 °C 8.3 °C 1023.2 hPa NW 7.2 km/h 23.3 km/h 49% 0.0 mm 319 W/m2
11:52 19.5 °C 8.2 °C 1022.9 hPa NW 5.0 km/h 17.2 km/h 48% 0.0 mm 318 W/m2
11:57 19.9 °C 8.9 °C 1022.9 hPa NW 8.7 km/h 13.4 km/h 49% 0.0 mm 318 W/m2
12:02 20.0 °C 8.1 °C 1022.9 hPa NW 17.2 km/h 20.9 km/h 46% 0.0 mm 317 W/m2
12:07 19.7 °C 8.4 °C 1022.9 hPa NNW 5.0 km/h 20.9 km/h 48% 0.0 mm 315 W/m2
12:12 19.9 °C 8.3 °C 1022.9 hPa NW 6.1 km/h 18.3 km/h 47% 0.0 mm 314 W/m2
12:17 20.0 °C 8.3 °C 1022.9 hPa WNW 7.2 km/h 18.3 km/h 47% 0.0 mm 314 W/m2
12:22 20.0 °C 8.1 °C 1022.9 hPa NW 9.7 km/h 17.2 km/h 46% 0.0 mm 312 W/m2
12:27 20.2 °C 8.2 °C 1022.6 hPa NW 12.2 km/h 17.2 km/h 46% 0.0 mm 311 W/m2
12:32 20.0 °C 7.4 °C 1022.6 hPa NW 7.2 km/h 15.8 km/h 44% 0.0 mm 307 W/m2
12:37 20.1 °C 8.1 °C 1022.6 hPa NW 12.2 km/h 17.2 km/h 46% 0.0 mm 304 W/m2
12:42 20.3 °C 8.0 °C 1022.6 hPa NNW 9.7 km/h 17.2 km/h 45% 0.0 mm 301 W/m2
12:47 20.3 °C 8.0 °C 1022.6 hPa NNW 8.7 km/h 17.2 km/h 45% 0.0 mm 298 W/m2
12:52 20.3 °C 8.0 °C 1022.2 hPa NW 9.7 km/h 19.5 km/h 45% 0.0 mm 297 W/m2
12:57 20.6 °C 8.3 °C 1022.2 hPa NW 8.7 km/h 19.5 km/h 45% 0.0 mm 296 W/m2
13:02 20.7 °C 8.3 °C 1022.2 hPa WNW 11.1 km/h 15.8 km/h 45% 0.0 mm 296 W/m2
13:07 20.5 °C 8.2 °C 1022.2 hPa WNW 8.7 km/h 15.8 km/h 45% 0.0 mm 288 W/m2
13:12 20.7 °C 8.3 °C 1022.2 hPa WNW 7.2 km/h 14.8 km/h 45% 0.0 mm 280 W/m2
13:17 20.9 °C 8.6 °C 1022.2 hPa NW 3.5 km/h 13.4 km/h 45% 0.0 mm 292 W/m2
13:22 21.0 °C 8.3 °C 1022.2 hPa NW 6.1 km/h 13.4 km/h 44% 0.0 mm 303 W/m2
13:27 21.0 °C 7.9 °C 1022.2 hPa NW 6.1 km/h 12.2 km/h 43% 0.0 mm 269 W/m2
13:32 21.0 °C 8.6 °C 1022.2 hPa WNW 3.5 km/h 13.4 km/h 45% 0.0 mm 101 W/m2
13:49 19.4 °C 9.9 °C 1022.2 hPa SW 9.7 km/h 17.2 km/h 54% 0.0 mm 127 W/m2
13:54 18.4 °C 10.8 °C 1022.2 hPa South 5.0 km/h 13.4 km/h 61% 0.0 mm 88 W/m2
13:59 18.0 °C 11.3 °C 1022.2 hPa SE 1.1 km/h 12.2 km/h 65% 0.0 mm 101 W/m2
14:04 18.9 °C 12.2 °C 1022.2 hPa SSE 3.5 km/h 8.7 km/h 65% 0.0 mm 87 W/m2
14:09 18.4 °C 11.9 °C 1022.2 hPa South 5.0 km/h 8.7 km/h 66% 0.0 mm 89 W/m2
14:14 18.9 °C 11.0 °C 1022.6 hPa SSE 2.6 km/h 11.1 km/h 60% 0.0 mm 84 W/m2
14:19 20.1 °C 10.5 °C 1022.2 hPa SE 3.5 km/h 11.1 km/h 54% 0.0 mm 73 W/m2
14:24 20.2 °C 9.4 °C 1022.2 hPa SE 1.1 km/h 8.7 km/h 50% 0.0 mm 70 W/m2
14:29 21.2 °C 10.1 °C 1022.2 hPa SSE 3.5 km/h 8.7 km/h 49% 0.0 mm 72 W/m2
14:34 21.2 °C 9.4 °C 1022.2 hPa SE 5.0 km/h 7.2 km/h 47% 0.0 mm 73 W/m2
14:39 21.3 °C 9.2 °C 1022.2 hPa SE 1.1 km/h 7.2 km/h 46% 0.0 mm 72 W/m2
14:44 21.7 °C 8.9 °C 1022.2 hPa SSE 5.0 km/h 7.2 km/h 44% 0.0 mm 73 W/m2
14:54 21.7 °C 8.9 °C 1022.2 hPa South 3.5 km/h 8.7 km/h 44% 0.0 mm 81 W/m2
14:59 21.4 °C 8.3 °C 1022.2 hPa South 5.0 km/h 8.7 km/h 43% 0.0 mm 57 W/m2
15:04 20.2 °C 8.6 °C 1022.2 hPa South 5.0 km/h 8.7 km/h 47% 0.0 mm 68 W/m2
15:09 19.6 °C 8.3 °C 1022.2 hPa South 5.0 km/h 8.7 km/h 48% 0.0 mm 137 W/m2
15:14 20.1 °C 9.1 °C 1022.6 hPa South 8.7 km/h 11.1 km/h 49% 0.0 mm 168 W/m2
15:19 20.1 °C 10.2 °C 1022.6 hPa South 7.2 km/h 11.1 km/h 53% 0.0 mm 188 W/m2
15:24 20.6 °C 11.0 °C 1022.2 hPa SSE 6.1 km/h 11.1 km/h 54% 0.0 mm 186 W/m2
15:29 20.6 °C 10.4 °C 1022.2 hPa SE 6.1 km/h 9.7 km/h 52% 0.0 mm 180 W/m2
15:32 20.6 °C 9.8 °C 1022.2 hPa SE 5.0 km/h 9.7 km/h 50% 0.0 mm 160 W/m2
15:38 21.0 °C 9.9 °C 1022.2 hPa SSE 6.1 km/h 9.7 km/h 49% 0.0 mm 137 W/m2
15:48 21.2 °C 9.8 °C 1022.2 hPa SSE 3.5 km/h 11.1 km/h 48% 0.0 mm 116 W/m2
15:53 20.9 °C 9.8 °C 1022.2 hPa SE 5.0 km/h 11.1 km/h 49% 0.0 mm 108 W/m2
15:58 20.6 °C 9.8 °C 1022.2 hPa SE 3.5 km/h 9.7 km/h 50% 0.0 mm 106 W/m2
16:03 20.9 °C 10.1 °C 1022.2 hPa SE 1.1 km/h 8.7 km/h 50% 0.0 mm 97 W/m2
16:08 21.7 °C 9.9 °C 1022.2 hPa SSE 2.6 km/h 6.1 km/h 47% 0.0 mm 86 W/m2
16:13 21.9 °C 9.8 °C 1022.2 hPa SSE 1.1 km/h 5.0 km/h 46% 0.0 mm 58 W/m2
16:18 20.9 °C 8.8 °C 1022.2 hPa SW 1.1 km/h 5.0 km/h 46% 0.0 mm 41 W/m2
16:23 19.0 °C 8.7 °C 1022.2 hPa WSW 3.5 km/h 5.0 km/h 51% 0.0 mm 31 W/m2
16:28 18.1 °C 8.9 °C 1022.2 hPa SW 1.1 km/h 5.0 km/h 55% 0.0 mm 26 W/m2
16:31 17.8 °C 8.4 °C 1022.2 hPa Calm   5.0 km/h 54% 0.0 mm 24 W/m2
16:36 17.4 °C 8.6 °C 1022.2 hPa WNW 3.5 km/h 5.0 km/h 56% 0.0 mm 22 W/m2
16:41 17.0 °C 9.4 °C 1022.2 hPa NW 3.5 km/h 6.1 km/h 61% 0.0 mm 20 W/m2
16:46 16.5 °C 9.9 °C 1022.2 hPa NW 3.5 km/h 6.1 km/h 65% 0.0 mm 19 W/m2
16:51 16.2 °C 9.8 °C 1022.2 hPa NW 1.1 km/h 6.1 km/h 66% 0.0 mm 19 W/m2
16:56 16.5 °C 10.1 °C 1022.6 hPa West 1.1 km/h 6.1 km/h 66% 0.0 mm 25 W/m2
17:01 17.4 °C 10.6 °C 1022.6 hPa Calm   2.6 km/h 64% 0.0 mm 21 W/m2
17:06 17.4 °C 10.3 °C 1022.6 hPa ESE 2.6 km/h 3.5 km/h 63% 0.0 mm 16 W/m2
17:11 16.8 °C 9.7 °C 1022.6 hPa Calm   3.5 km/h 63% 0.0 mm 7 W/m2
17:16 16.0 °C 9.4 °C 1022.2 hPa North 3.5 km/h 6.1 km/h 65% 0.0 mm 4 W/m2
17:21 15.2 °C 9.8 °C 1022.2 hPa NW 3.5 km/h 6.1 km/h 70% 0.0 mm 1 W/m2
17:26 14.7 °C 10.1 °C 1022.6 hPa NW 1.1 km/h 6.1 km/h 74% 0.0 mm 0 W/m2
17:31 14.3 °C 9.7 °C 1022.6 hPa WNW 1.1 km/h 6.1 km/h 74% 0.0 mm 0 W/m2
17:36 14.0 °C 9.7 °C 1022.6 hPa NNE 2.6 km/h 3.5 km/h 75% 0.0 mm 0 W/m2
17:41 14.0 °C 9.8 °C 1022.6 hPa NE 2.6 km/h 5.0 km/h 76% 0.0 mm 0 W/m2
17:46 14.2 °C 9.8 °C 1022.6 hPa NE 1.1 km/h 5.0 km/h 75% 0.0 mm 0 W/m2
17:51 13.9 °C 9.7 °C 1022.9 hPa Calm   3.5 km/h 76% 0.0 mm 0 W/m2
17:56 13.6 °C 9.4 °C 1022.6 hPa Calm   3.5 km/h 76% 0.0 mm 0 W/m2
18:01 13.5 °C 9.6 °C 1022.6 hPa NNW 3.5 km/h 5.0 km/h 77% 0.0 mm 0 W/m2
18:06 13.1 °C 9.3 °C 1022.9 hPa NNW 2.6 km/h 5.0 km/h 78% 0.0 mm 0 W/m2
18:11 12.8 °C 9.3 °C 1022.9 hPa Calm   5.0 km/h 79% 0.0 mm 0 W/m2
18:16 12.7 °C 9.3 °C 1023.2 hPa NNE 2.6 km/h 5.0 km/h 80% 0.0 mm 0 W/m2
18:21 12.9 °C 9.7 °C 1023.2 hPa NE 3.5 km/h 5.0 km/h 81% 0.0 mm 0 W/m2
18:26 13.2 °C 9.7 °C 1023.2 hPa NE 3.5 km/h 6.1 km/h 79% 0.0 mm 0 W/m2
18:31 13.2 °C 9.4 °C 1023.6 hPa Calm   6.1 km/h 78% 0.0 mm 0 W/m2
18:36 13.1 °C 9.2 °C 1023.6 hPa NNE 2.6 km/h 5.0 km/h 77% 0.0 mm 0 W/m2
18:41 13.4 °C 9.4 °C 1023.2 hPa NNE 3.5 km/h 8.7 km/h 77% 0.0 mm 0 W/m2
18:46 13.1 °C 9.2 °C 1023.2 hPa North 8.7 km/h 11.1 km/h 77% 0.0 mm 0 W/m2
18:51 13.3 °C 9.3 °C 1023.2 hPa NNW 6.1 km/h 11.1 km/h 77% 0.0 mm 0 W/m2
18:56 13.5 °C 9.6 °C 1023.6 hPa Calm   11.1 km/h 77% 0.0 mm 0 W/m2
19:01 13.4 °C 9.4 °C 1023.6 hPa Calm   9.7 km/h 77% 0.0 mm 0 W/m2
19:11 13.2 °C 9.3 °C 1023.6 hPa NE 1.1 km/h 3.5 km/h 77% 0.0 mm 0 W/m2
19:16 13.2 °C 9.3 °C 1023.6 hPa North 3.5 km/h 5.0 km/h 77% 0.0 mm 0 W/m2
19:21 12.7 °C 8.9 °C 1023.6 hPa NW 2.6 km/h 5.0 km/h 78% 0.0 mm 0 W/m2
19:26 12.4 °C 8.9 °C 1023.6 hPa NW 3.5 km/h 5.0 km/h 79% 0.0 mm 0 W/m2
19:31 12.1 °C 8.9 °C 1023.6 hPa NW 5.0 km/h 7.2 km/h 81% 0.0 mm 0 W/m2
19:36 12.0 °C 8.8 °C 1023.6 hPa NW 5.0 km/h 7.2 km/h 81% 0.0 mm 0 W/m2
19:41 12.1 °C 8.9 °C 1023.6 hPa NW 3.5 km/h 8.7 km/h 81% 0.0 mm 0 W/m2
19:46 12.1 °C 8.9 °C 1023.9 hPa NNW 5.0 km/h 8.7 km/h 81% 0.0 mm 0 W/m2
19:51 12.4 °C 9.2 °C 1023.9 hPa NNW 5.0 km/h 8.7 km/h 81% 0.0 mm 0 W/m2
19:56 12.6 °C 9.4 °C 1023.9 hPa North 6.1 km/h 8.7 km/h 81% 0.0 mm 0 W/m2
20:01 12.6 °C 9.4 °C 1023.9 hPa NNW 5.0 km/h 8.7 km/h 81% 0.0 mm 0 W/m2
20:06 12.5 °C 9.3 °C 1023.9 hPa NNW 3.5 km/h 8.7 km/h 81% 0.0 mm 0 W/m2
20:11 12.3 °C 9.1 °C 1024.3 hPa North 2.6 km/h 6.1 km/h 81% 0.0 mm 0 W/m2
20:16 12.1 °C 8.9 °C 1024.3 hPa NW 5.0 km/h 5.0 km/h 81% 0.0 mm 0 W/m2
20:21 11.9 °C 8.9 °C 1023.9 hPa NNW 3.5 km/h 6.1 km/h 82% 0.0 mm 0 W/m2
20:26 11.6 °C 8.8 °C 1023.9 hPa NNW 3.5 km/h 6.1 km/h 83% 0.0 mm 0 W/m2
20:31 11.4 °C 8.6 °C 1023.9 hPa NW 6.1 km/h 8.7 km/h 83% 0.0 mm 0 W/m2
20:36 11.4 °C 8.8 °C 1024.3 hPa NW 5.0 km/h 8.7 km/h 84% 0.0 mm 0 W/m2
20:41 11.3 °C 8.7 °C 1024.3 hPa NNW 2.6 km/h 8.7 km/h 84% 0.0 mm 0 W/m2
20:46 11.2 °C 8.6 °C 1024.3 hPa NW 3.5 km/h 7.2 km/h 84% 0.0 mm 0 W/m2
20:51 11.2 °C 8.6 °C 1024.3 hPa NW 3.5 km/h 6.1 km/h 84% 0.0 mm 0 W/m2
20:56 11.2 °C 8.8 °C 1024.3 hPa NW 3.5 km/h 6.1 km/h 85% 0.0 mm 0 W/m2
21:01 11.1 °C 8.7 °C 1023.9 hPa NW 3.5 km/h 6.1 km/h 85% 0.0 mm 0 W/m2
21:06 11.0 °C 8.6 °C 1024.3 hPa NW 3.5 km/h 6.1 km/h 85% 0.0 mm 0 W/m2
21:11 11.0 °C 8.6 °C 1023.9 hPa NW 5.0 km/h 8.7 km/h 85% 0.0 mm 0 W/m2
21:16 10.9 °C 8.7 °C 1023.9 hPa NW 3.5 km/h 8.7 km/h 86% 0.0 mm 0 W/m2
21:21 10.8 °C 8.6 °C 1024.3 hPa NNW 2.6 km/h 8.7 km/h 86% 0.0 mm 0 W/m2
21:26 10.8 °C 8.7 °C 1024.3 hPa Calm   6.1 km/h 87% 0.0 mm 0 W/m2
21:31 10.9 °C 8.8 °C 1024.3 hPa NNE 3.5 km/h 8.7 km/h 87% 0.0 mm 0 W/m2
21:47 10.8 °C 8.7 °C 1024.3 hPa NNW 3.5 km/h 7.2 km/h 87% 0.0 mm 0 W/m2
21:52 10.6 °C 8.6 °C 1024.3 hPa NW 1.1 km/h 7.2 km/h 87% 0.0 mm 0 W/m2
21:57 10.5 °C 8.4 °C 1024.3 hPa Calm   6.1 km/h 87% 0.0 mm 0 W/m2
22:02 10.3 °C 8.2 °C 1024.3 hPa Calm   2.6 km/h 87% 0.0 mm 0 W/m2
22:08 10.3 °C 8.2 °C 1024.3 hPa WNW 2.6 km/h 5.0 km/h 87% 0.0 mm 0 W/m2
22:13 10.3 °C 8.4 °C 1024.3 hPa WNW 2.6 km/h 6.1 km/h 88% 0.0 mm 0 W/m2
22:18 10.1 °C 8.2 °C 1024.3 hPa NNW 6.1 km/h 8.7 km/h 88% 0.0 mm 0 W/m2
22:23 10.1 °C 8.2 °C 1023.9 hPa NNW 6.1 km/h 9.7 km/h 88% 0.0 mm 0 W/m2
22:39 10.0 °C 8.4 °C 1023.9 hPa NNW 5.0 km/h 9.7 km/h 90% 0.0 mm 0 W/m2
22:44 10.0 °C 8.4 °C 1023.9 hPa NW 5.0 km/h 9.7 km/h 90% 0.0 mm 0 W/m2
22:49 10.0 °C 8.4 °C 1023.6 hPa NW 6.1 km/h 11.1 km/h 90% 0.0 mm 0 W/m2
22:54 10.0 °C 8.4 °C 1023.9 hPa NNW 6.1 km/h 12.2 km/h 90% 0.0 mm 0 W/m2
22:59 10.0 °C 8.4 °C 1023.9 hPa NNW 7.2 km/h 12.2 km/h 90% 0.0 mm 0 W/m2
23:04 9.9 °C 8.5 °C 1023.9 hPa NNW 6.1 km/h 11.1 km/h 91% 0.0 mm 0 W/m2
23:09 9.9 °C 8.5 °C 1023.9 hPa NNW 3.5 km/h 9.7 km/h 91% 0.0 mm 0 W/m2
23:14 9.8 °C 8.4 °C 1023.9 hPa NNW 3.5 km/h 9.7 km/h 91% 0.0 mm 0 W/m2
23:24 9.7 °C 8.3 °C 1024.3 hPa NNW 7.2 km/h 13.4 km/h 91% 0.0 mm 0 W/m2
23:29 9.7 °C 8.4 °C 1023.9 hPa NW 3.5 km/h 13.4 km/h 92% 0.0 mm 0 W/m2
23:34 9.5 °C 8.1 °C 1023.9 hPa NW 3.5 km/h 12.2 km/h 91% 0.0 mm 0 W/m2
23:39 9.4 °C 8.0 °C 1023.6 hPa NW 6.1 km/h 11.1 km/h 91% 0.0 mm 0 W/m2
23:44 9.3 °C 8.1 °C 1023.9 hPa NW 7.2 km/h 11.1 km/h 92% 0.0 mm 0 W/m2
23:49 9.2 °C 7.9 °C 1023.9 hPa NNW 7.2 km/h 11.1 km/h 92% 0.0 mm 0 W/m2
23:54 9.1 °C 7.9 °C 1023.9 hPa NW 9.7 km/h 14.8 km/h 92% 0.0 mm 0 W/m2
Northern Hawkes Bay. New Zealand Historic Data
Compliments of Weather Underground - 2 mb